createdAt,value
2022-08-17T00:01:27.581Z,20.42
2022-08-17T00:06:32.831Z,20.44
2022-08-17T00:11:38.606Z,20.37
2022-08-17T00:16:55.544Z,20.35
2022-08-17T00:22:34.759Z,20.34
2022-08-17T00:27:26.480Z,20.24
2022-08-17T00:33:15.648Z,20.20
2022-08-17T00:37:55.226Z,20.15
2022-08-17T00:42:58.550Z,20.05
2022-08-17T00:48:01.861Z,20.02
2022-08-17T00:53:07.116Z,20.01
2022-08-17T00:58:11.630Z,19.88
2022-08-17T01:03:19.645Z,19.81
2022-08-17T01:08:28.271Z,19.78
2022-08-17T01:13:40.766Z,19.68
2022-08-17T01:18:46.938Z,19.67
2022-08-17T01:23:51.769Z,19.59
2022-08-17T01:28:56.164Z,19.49
2022-08-17T01:34:00.111Z,19.46
2022-08-17T01:39:08.160Z,19.31
2022-08-17T01:44:11.606Z,19.15
2022-08-17T01:49:14.901Z,19.15
2022-08-17T01:54:20.830Z,19.03
2022-08-17T01:59:24.398Z,19.09
2022-08-17T02:04:28.069Z,19.06
2022-08-17T02:09:32.903Z,19.05
2022-08-17T02:14:36.588Z,19.10
2022-08-17T02:19:40.575Z,19.05
2022-08-17T02:25:01.252Z,19.03
2022-08-17T02:31:01.045Z,19.03
2022-08-17T02:35:32.430Z,19.01
2022-08-17T02:40:40.622Z,19.12
2022-08-17T02:45:44.302Z,19.30
2022-08-17T02:50:48.202Z,19.43
2022-08-17T02:55:52.937Z,19.44
2022-08-17T03:00:56.737Z,19.55
2022-08-17T03:06:00.582Z,19.65
2022-08-17T03:11:05.612Z,19.62
2022-08-17T03:16:10.016Z,19.77
2022-08-17T03:21:13.050Z,19.87
2022-08-17T03:26:17.738Z,19.98
2022-08-17T03:31:22.814Z,20.10
2022-08-17T03:36:26.197Z,20.31
2022-08-17T03:41:30.991Z,20.47
2022-08-17T03:46:51.896Z,20.65
2022-08-17T03:52:13.856Z,21.34
2022-08-17T03:57:19.427Z,23.50
2022-08-17T04:02:25.514Z,24.99
2022-08-17T04:07:31.085Z,25.99
2022-08-17T04:12:46.948Z,27.47
2022-08-17T04:17:50.483Z,28.12
2022-08-17T04:22:58.555Z,29.02
2022-08-17T04:28:04.018Z,30.24
2022-08-17T04:33:14.152Z,31.74
2022-08-17T04:38:19.941Z,32.88
2022-08-17T04:43:27.211Z,33.65
2022-08-17T04:48:36.391Z,34.53
2022-08-17T04:53:41.499Z,35.62
2022-08-17T04:58:49.742Z,35.36
2022-08-17T05:03:54.835Z,36.26
2022-08-17T05:08:59.418Z,37.14
2022-08-17T05:14:04.865Z,37.03
2022-08-17T05:19:08.483Z,38.06
2022-08-17T05:24:38.348Z,39.88
2022-08-17T05:29:37.698Z,40.87
2022-08-17T05:34:41.005Z,41.89
2022-08-17T05:39:45.176Z,41.50
2022-08-17T05:44:49.982Z,42.32
2022-08-17T05:49:53.799Z,44.14
2022-08-17T05:55:11.727Z,44.42
2022-08-17T06:00:21.847Z,44.57
2022-08-17T06:05:51.624Z,45.04
2022-08-17T06:11:00.584Z,43.72
2022-08-17T06:16:25.971Z,45.82
2022-08-17T06:21:40.769Z,46.23
2022-08-17T06:26:45.802Z,47.46
2022-08-17T06:31:51.191Z,48.75
2022-08-17T06:37:14.986Z,49.76
2022-08-17T06:43:05.026Z,48.33
2022-08-17T06:47:57.025Z,49.41
2022-08-17T06:53:05.892Z,49.45
2022-08-17T06:58:16.336Z,48.82
2022-08-17T07:03:32.382Z,49.02
2022-08-17T07:08:48.376Z,49.46
2022-08-17T07:13:59.191Z,49.06
2022-08-17T07:19:04.409Z,47.84
2022-08-17T07:24:33.242Z,46.70
2022-08-17T07:29:54.894Z,45.69
2022-08-17T07:35:10.836Z,47.67
2022-08-17T07:40:29.692Z,46.28
2022-08-17T07:45:53.563Z,47.35
2022-08-17T07:50:57.365Z,47.18
2022-08-17T07:56:00.775Z,47.38
2022-08-17T08:01:09.208Z,47.30
2022-08-17T08:06:23.136Z,46.98
2022-08-17T08:11:32.387Z,46.98
2022-08-17T08:16:37.698Z,46.03
2022-08-17T08:21:48.922Z,44.74
2022-08-17T08:27:04.393Z,42.25
2022-08-17T08:32:20.307Z,41.12
2022-08-17T08:37:42.507Z,39.01
2022-08-17T08:42:56.542Z,37.36
2022-08-17T08:48:23.145Z,36.06
2022-08-17T08:53:51.680Z,35.62
2022-08-17T08:59:03.549Z,34.84
2022-08-17T09:04:27.296Z,35.04
2022-08-17T09:09:41.582Z,34.53
2022-08-17T09:14:53.082Z,33.65
2022-08-17T09:20:02.757Z,33.40
2022-08-17T09:25:11.696Z,33.70
2022-08-17T09:30:15.878Z,33.29
2022-08-17T09:35:25.220Z,33.12
2022-08-17T09:40:52.776Z,33.01
2022-08-17T09:46:02.643Z,33.05
2022-08-17T09:51:14.856Z,32.58
2022-08-17T09:56:34.694Z,32.96
2022-08-17T10:01:43.574Z,32.64
2022-08-17T10:06:59.232Z,32.63
2022-08-17T10:12:17.792Z,32.18
2022-08-17T10:17:29.418Z,32.21
2022-08-17T10:23:10.758Z,31.53
2022-08-17T10:28:19.882Z,32.00
2022-08-17T10:33:26.079Z,32.23
2022-08-17T10:38:40.042Z,31.45
2022-08-17T10:43:57.829Z,31.81
2022-08-17T10:49:34.811Z,31.67
2022-08-17T10:54:48.400Z,31.63
2022-08-17T10:59:53.987Z,31.72
2022-08-17T11:05:47.909Z,31.61
2022-08-17T11:11:07.687Z,31.63
2022-08-17T11:16:32.744Z,31.17
2022-08-17T11:22:02.987Z,31.54
2022-08-17T11:27:23.643Z,31.47
2022-08-17T11:32:34.147Z,31.55
2022-08-17T11:37:47.901Z,31.65
2022-08-17T11:43:00.713Z,31.43
2022-08-17T11:48:33.950Z,31.47
2022-08-17T11:54:32.837Z,31.38
2022-08-17T11:59:59.020Z,31.13
2022-08-17T12:05:27.592Z,31.27
2022-08-17T12:10:34.424Z,31.21
2022-08-17T12:15:48.846Z,31.19
2022-08-17T12:21:19.430Z,31.00
2022-08-17T12:26:30.443Z,30.93
2022-08-17T12:31:43.448Z,30.99
2022-08-17T12:36:48.338Z,31.03
2022-08-17T12:41:57.358Z,31.09
2022-08-17T12:47:09.917Z,30.81
2022-08-17T12:52:16.955Z,30.61
2022-08-17T12:57:23.954Z,30.54
2022-08-17T13:02:45.511Z,30.56
2022-08-17T13:07:49.618Z,30.33
2022-08-17T13:12:53.690Z,30.40
2022-08-17T13:18:03.988Z,30.29
2022-08-17T13:23:12.445Z,30.10
2022-08-17T13:28:35.722Z,30.10
2022-08-17T13:33:44.959Z,30.09
2022-08-17T13:38:51.077Z,30.01
2022-08-17T13:43:54.508Z,30.01
2022-08-17T13:49:01.894Z,30.02
2022-08-17T13:54:25.751Z,29.88
2022-08-17T13:59:52.568Z,29.91
2022-08-17T14:05:00.638Z,29.85
2022-08-17T14:10:08.526Z,29.84
2022-08-17T14:15:14.178Z,29.76
2022-08-17T14:20:22.853Z,29.65
2022-08-17T14:25:28.898Z,29.56
2022-08-17T14:30:32.662Z,29.52
2022-08-17T14:35:37.570Z,29.50
2022-08-17T14:40:41.148Z,29.35
2022-08-17T14:45:45.023Z,29.28
2022-08-17T14:50:49.799Z,29.42
2022-08-17T14:55:53.233Z,29.35
2022-08-17T15:00:56.891Z,29.34
2022-08-17T15:06:02.849Z,29.29
2022-08-17T15:11:06.679Z,29.20
2022-08-17T15:16:15.179Z,29.11
2022-08-17T15:21:20.588Z,28.99
2022-08-17T15:26:26.358Z,28.87
2022-08-17T15:31:32.118Z,28.88
2022-08-17T15:36:37.574Z,28.83
2022-08-17T15:41:44.949Z,28.76
2022-08-17T15:46:49.897Z,28.68
2022-08-17T15:51:54.927Z,28.52
2022-08-17T15:56:58.341Z,28.46
2022-08-17T16:03:01.767Z,28.26
2022-08-17T16:07:26.946Z,28.13
2022-08-17T16:12:30.483Z,28.03
2022-08-17T16:17:39.967Z,27.90
2022-08-17T16:22:46.998Z,27.71
2022-08-17T16:27:53.728Z,27.58
2022-08-17T16:32:59.945Z,27.45
2022-08-17T16:38:04.906Z,27.32
2022-08-17T16:43:12.203Z,27.15
2022-08-17T16:48:16.573Z,26.90
2022-08-17T16:53:21.787Z,26.68
2022-08-17T16:58:25.205Z,26.41
2022-08-17T17:03:30.875Z,26.22
2022-08-17T17:08:44.370Z,26.05
2022-08-17T17:13:54.867Z,25.85
2022-08-17T17:19:09.658Z,25.70
2022-08-17T17:24:22.988Z,25.47
2022-08-17T17:29:48.084Z,25.22
2022-08-17T17:34:56.212Z,25.17
2022-08-17T17:40:05.226Z,25.03
2022-08-17T17:45:16.099Z,24.91
2022-08-17T17:50:35.888Z,24.72
2022-08-17T17:55:55.260Z,24.61
2022-08-17T18:01:20.315Z,24.58
2022-08-17T18:06:39.925Z,24.45
2022-08-17T18:11:59.220Z,24.25
2022-08-17T18:17:03.313Z,24.15
2022-08-17T18:22:14.182Z,24.07
2022-08-17T18:27:26.661Z,23.90
2022-08-17T18:32:36.149Z,23.71
2022-08-17T18:37:46.325Z,23.65
2022-08-17T18:43:04.252Z,23.56
2022-08-17T18:48:21.149Z,23.52
2022-08-17T18:53:34.752Z,23.42
2022-08-17T18:58:40.933Z,23.24
2022-08-17T19:03:46.561Z,23.14
2022-08-17T19:08:49.975Z,23.13
2022-08-17T19:13:58.391Z,23.15
2022-08-17T19:19:06.467Z,23.05
2022-08-17T19:24:19.475Z,22.98
2022-08-17T19:29:31.176Z,22.97
2022-08-17T19:34:37.004Z,22.91
2022-08-17T19:40:00.865Z,22.86
2022-08-17T19:45:17.030Z,22.79
2022-08-17T19:50:26.645Z,22.70
2022-08-17T19:55:37.992Z,22.63
2022-08-17T20:00:50.520Z,22.61
2022-08-17T20:06:13.879Z,22.54
2022-08-17T20:11:22.150Z,22.48
2022-08-17T20:16:27.317Z,22.42
2022-08-17T20:21:37.254Z,22.39
2022-08-17T20:26:58.114Z,22.35
2022-08-17T20:32:24.117Z,22.29
2022-08-17T20:37:31.236Z,22.25
2022-08-17T20:42:35.594Z,22.15
2022-08-17T20:48:07.401Z,22.06
2022-08-17T20:53:13.546Z,21.93
2022-08-17T20:58:38.444Z,21.89
2022-08-17T21:03:52.290Z,21.84
2022-08-17T21:09:19.723Z,21.76
2022-08-17T21:14:33.012Z,21.67
2022-08-17T21:20:10.239Z,21.67
2022-08-17T21:25:37.236Z,21.62
2022-08-17T21:30:48.899Z,21.56
2022-08-17T21:36:16.428Z,21.46
2022-08-17T21:41:22.321Z,21.42
2022-08-17T21:46:30.575Z,21.38
2022-08-17T21:51:38.834Z,21.33
2022-08-17T21:56:47.257Z,21.22
2022-08-17T22:01:54.110Z,21.18
2022-08-17T22:07:00.587Z,21.12
2022-08-17T22:12:09.235Z,21.05
2022-08-17T22:17:17.858Z,20.90
2022-08-17T22:22:29.355Z,20.80
2022-08-17T22:27:49.133Z,20.72
2022-08-17T22:32:52.778Z,20.63
2022-08-17T22:37:57.653Z,20.61
2022-08-17T22:43:03.556Z,20.54
2022-08-17T22:48:07.512Z,20.45
2022-08-17T22:53:38.132Z,20.41
2022-08-17T22:59:02.845Z,20.33
2022-08-17T23:04:08.789Z,20.28
2022-08-17T23:09:13.615Z,20.29
2022-08-17T23:14:19.319Z,20.17
2022-08-17T23:19:23.283Z,20.24
2022-08-17T23:24:30.292Z,20.23
2022-08-17T23:29:33.701Z,20.15
2022-08-17T23:34:39.068Z,20.05
2022-08-17T23:39:45.145Z,20.02
2022-08-17T23:44:49.433Z,19.98
2022-08-17T23:49:54.213Z,19.96
2022-08-17T23:55:00.271Z,19.81
